createdAt,value
2019-03-22T00:00:31.366Z,4.50
2019-03-22T00:03:00.067Z,4.40
2019-03-22T00:05:28.703Z,4.40
2019-03-22T00:07:57.621Z,4.40
2019-03-22T00:10:26.257Z,4.40
2019-03-22T00:12:54.820Z,4.40
2019-03-22T00:15:23.782Z,4.30
2019-03-22T00:17:52.482Z,4.20
2019-03-22T00:20:21.064Z,4.20
2019-03-22T00:22:49.900Z,4.50
2019-03-22T00:25:18.459Z,4.60
2019-03-22T00:27:47.096Z,4.60
2019-03-22T00:30:15.836Z,4.50
2019-03-22T00:32:44.476Z,4.40
2019-03-22T00:35:13.407Z,4.40
2019-03-22T00:37:42.014Z,4.20
2019-03-22T00:40:11.321Z,4.20
2019-03-22T00:42:39.955Z,4.20
2019-03-22T00:45:11.044Z,4.10
2019-03-22T00:47:39.681Z,4.10
2019-03-22T00:50:10.787Z,4.00
2019-03-22T00:52:39.731Z,4.00
2019-03-22T00:55:08.931Z,3.90
2019-03-22T00:57:37.636Z,3.90
2019-03-22T01:00:12.143Z,3.80
2019-03-22T01:02:40.776Z,3.90
2019-03-22T01:05:09.880Z,3.90
2019-03-22T01:07:38.686Z,3.90
2019-03-22T01:10:12.425Z,3.90
2019-03-22T01:12:41.117Z,3.80
2019-03-22T01:15:14.074Z,3.70
2019-03-22T01:17:42.909Z,3.70
2019-03-22T01:20:12.629Z,3.70
2019-03-22T01:22:41.554Z,3.70
2019-03-22T01:25:11.163Z,3.70
2019-03-22T01:27:41.502Z,3.70
2019-03-22T01:30:13.338Z,3.60
2019-03-22T01:32:41.974Z,3.60
2019-03-22T01:35:10.779Z,3.60
2019-03-22T01:37:39.539Z,3.80
2019-03-22T01:40:10.614Z,3.90
2019-03-22T01:42:39.618Z,3.80
2019-03-22T01:45:15.530Z,3.80
2019-03-22T01:47:44.240Z,3.70
2019-03-22T01:50:17.715Z,3.60
2019-03-22T01:52:46.316Z,3.60
2019-03-22T01:55:15.044Z,3.50
2019-03-22T01:57:52.593Z,3.40
2019-03-22T02:00:17.904Z,3.30
2019-03-22T02:02:46.571Z,3.30
2019-03-22T02:05:15.277Z,3.30
2019-03-22T02:07:44.411Z,3.30
2019-03-22T02:10:13.585Z,3.30
2019-03-22T02:12:42.306Z,3.30
2019-03-22T02:15:13.049Z,3.30
2019-03-22T02:17:41.963Z,3.20
2019-03-22T02:20:13.373Z,3.30
2019-03-22T02:22:42.124Z,3.30
2019-03-22T02:25:11.235Z,3.20
2019-03-22T02:27:39.964Z,3.30
2019-03-22T02:30:11.716Z,3.30
2019-03-22T02:32:40.518Z,3.20
2019-03-22T02:35:09.432Z,3.10
2019-03-22T02:37:38.320Z,3.00
2019-03-22T02:40:12.181Z,3.00
2019-03-22T02:42:40.795Z,3.00
2019-03-22T02:45:15.298Z,2.90
2019-03-22T02:47:43.927Z,2.90
2019-03-22T02:50:18.594Z,2.90
2019-03-22T02:52:44.969Z,2.90
2019-03-22T02:55:13.863Z,2.80
2019-03-22T02:57:42.568Z,2.80
2019-03-22T03:00:18.264Z,2.80
2019-03-22T03:02:47.027Z,2.80
2019-03-22T03:05:16.264Z,2.70
2019-03-22T03:07:45.166Z,2.80
2019-03-22T03:10:16.968Z,2.80
2019-03-22T03:12:45.854Z,2.70
2019-03-22T03:15:16.463Z,2.70
2019-03-22T03:17:45.149Z,2.70
2019-03-22T03:20:18.437Z,2.60
2019-03-22T03:22:47.365Z,2.60
2019-03-22T03:25:17.159Z,2.60
2019-03-22T03:27:45.948Z,2.60
2019-03-22T03:30:19.973Z,2.60
2019-03-22T03:32:48.566Z,2.60
2019-03-22T03:35:17.438Z,2.60
2019-03-22T03:37:46.334Z,2.60
2019-03-22T03:40:15.327Z,2.60
2019-03-22T03:42:43.961Z,2.50
2019-03-22T03:45:21.024Z,2.50
2019-03-22T03:47:49.586Z,2.50
2019-03-22T03:50:18.134Z,2.60
2019-03-22T03:52:46.726Z,2.70
2019-03-22T03:55:15.332Z,2.60
2019-03-22T03:57:43.950Z,2.60
2019-03-22T04:00:12.782Z,2.60
2019-03-22T04:02:41.350Z,2.60
2019-03-22T04:05:10.039Z,2.60
2019-03-22T04:07:38.818Z,2.40
2019-03-22T04:10:08.015Z,2.40
2019-03-22T04:12:36.644Z,2.40
2019-03-22T04:15:06.478Z,2.30
2019-03-22T04:17:35.182Z,2.30
2019-03-22T04:20:06.047Z,2.20
2019-03-22T04:22:36.312Z,2.20
2019-03-22T04:25:07.192Z,2.30
2019-03-22T04:27:35.886Z,2.40
2019-03-22T04:30:06.219Z,2.50
2019-03-22T04:32:34.854Z,2.60
2019-03-22T04:35:05.151Z,2.60
2019-03-22T04:37:33.851Z,2.50
2019-03-22T04:40:02.487Z,2.50
2019-03-22T04:42:31.117Z,2.60
2019-03-22T04:44:59.801Z,2.50
2019-03-22T04:47:28.810Z,2.40
2019-03-22T04:49:57.711Z,2.40
2019-03-22T04:52:27.440Z,2.50
2019-03-22T04:54:57.896Z,2.40
2019-03-22T04:57:27.906Z,2.40
2019-03-22T04:59:57.834Z,2.40
2019-03-22T05:02:26.832Z,2.40
2019-03-22T05:04:55.855Z,2.30
2019-03-22T05:07:24.617Z,2.30
2019-03-22T05:09:53.722Z,2.20
2019-03-22T05:12:23.521Z,2.20
2019-03-22T05:14:53.537Z,2.10
2019-03-22T05:17:22.838Z,2.10
2019-03-22T05:19:54.709Z,2.10
2019-03-22T05:22:25.594Z,2.10
2019-03-22T05:24:55.109Z,2.10
2019-03-22T05:27:24.344Z,2.10
2019-03-22T05:29:56.105Z,2.10
2019-03-22T05:32:24.810Z,2.10
2019-03-22T05:34:53.438Z,2.10
2019-03-22T05:37:22.048Z,2.20
2019-03-22T05:39:50.602Z,2.20
2019-03-22T05:42:19.154Z,2.20
2019-03-22T05:44:47.751Z,2.20
2019-03-22T05:47:16.382Z,2.30
2019-03-22T05:49:44.939Z,2.40
2019-03-22T05:52:13.537Z,2.50
2019-03-22T05:54:42.099Z,2.50
2019-03-22T05:57:13.550Z,2.60
2019-03-22T05:59:42.808Z,2.70
2019-03-22T06:02:11.393Z,2.70
2019-03-22T06:04:39.908Z,2.80
2019-03-22T06:07:08.513Z,2.90
2019-03-22T06:09:37.066Z,3.00
2019-03-22T06:12:05.690Z,3.10
2019-03-22T06:14:34.425Z,3.30
2019-03-22T06:17:03.220Z,3.30
2019-03-22T06:19:31.782Z,3.30
2019-03-22T06:22:00.631Z,3.30
2019-03-22T06:24:29.186Z,3.40
2019-03-22T06:26:57.885Z,3.50
2019-03-22T06:29:26.474Z,3.70
2019-03-22T06:31:55.037Z,3.80
2019-03-22T06:34:23.614Z,3.90
2019-03-22T06:36:52.410Z,4.00
2019-03-22T06:39:21.061Z,4.10
2019-03-22T06:41:49.611Z,4.40
2019-03-22T06:44:18.401Z,4.50
2019-03-22T06:46:47.098Z,4.70
2019-03-22T06:49:15.661Z,4.90
2019-03-22T06:51:44.476Z,5.10
2019-03-22T06:54:12.979Z,5.30
2019-03-22T06:56:41.721Z,5.50
2019-03-22T06:59:10.285Z,5.80
2019-03-22T07:01:38.905Z,5.90
2019-03-22T07:04:07.533Z,6.00
2019-03-22T07:06:36.197Z,6.20
2019-03-22T07:09:07.261Z,6.40
2019-03-22T07:11:35.885Z,6.50
2019-03-22T07:14:04.949Z,6.60
2019-03-22T07:16:33.501Z,6.70
2019-03-22T07:19:02.069Z,6.80
2019-03-22T07:21:30.784Z,7.10
2019-03-22T07:23:59.611Z,7.40
2019-03-22T07:26:30.093Z,7.60
2019-03-22T07:28:58.673Z,7.70
2019-03-22T07:31:27.382Z,7.90
2019-03-22T07:33:56.261Z,8.10
2019-03-22T07:36:24.838Z,8.20
2019-03-22T07:38:53.395Z,8.30
2019-03-22T07:41:21.946Z,8.30
2019-03-22T07:43:50.611Z,8.60
2019-03-22T07:46:19.244Z,8.80
2019-03-22T07:48:47.822Z,9.40
2019-03-22T07:51:16.571Z,10.40
2019-03-22T07:53:45.133Z,11.00
2019-03-22T07:56:13.769Z,11.50
2019-03-22T07:58:42.433Z,12.30
2019-03-22T08:01:11.062Z,12.80
2019-03-22T08:03:39.763Z,13.50
2019-03-22T08:06:08.466Z,14.30
2019-03-22T08:08:37.011Z,14.60
2019-03-22T08:11:05.728Z,15.20
2019-03-22T08:13:34.378Z,16.10
2019-03-22T08:16:02.940Z,16.20
2019-03-22T08:18:31.503Z,16.20
2019-03-22T08:21:00.452Z,16.30
2019-03-22T08:23:29.014Z,16.20
2019-03-22T08:25:57.653Z,16.40
2019-03-22T08:28:26.392Z,16.70
2019-03-22T08:30:54.952Z,17.00
2019-03-22T08:33:23.616Z,17.10
2019-03-22T08:35:52.316Z,17.00
2019-03-22T08:38:20.923Z,17.00
2019-03-22T08:40:49.459Z,16.60
2019-03-22T08:43:18.178Z,17.30
2019-03-22T08:45:46.926Z,17.50
2019-03-22T08:48:15.571Z,18.30
2019-03-22T08:50:44.111Z,18.60
2019-03-22T08:53:12.827Z,18.20
2019-03-22T08:55:41.380Z,18.40
2019-03-22T08:58:10.028Z,18.20
2019-03-22T09:00:39.955Z,18.30
2019-03-22T09:03:08.758Z,18.30
2019-03-22T09:05:37.341Z,18.30
2019-03-22T09:08:05.989Z,18.50
2019-03-22T09:10:34.650Z,18.30
2019-03-22T09:13:03.179Z,18.70
2019-03-22T09:15:41.004Z,18.80
2019-03-22T09:18:02.139Z,18.90
2019-03-22T09:20:30.812Z,19.90
2019-03-22T09:22:59.474Z,20.30
2019-03-22T09:25:28.092Z,20.80
2019-03-22T09:27:56.601Z,21.40
2019-03-22T09:30:25.756Z,21.90
2019-03-22T09:32:54.329Z,21.90
2019-03-22T09:35:22.859Z,21.70
2019-03-22T09:37:51.597Z,21.40
2019-03-22T09:40:20.242Z,21.20
2019-03-22T09:42:49.150Z,22.00
2019-03-22T09:45:17.987Z,22.00
2019-03-22T09:47:46.648Z,22.10
2019-03-22T09:50:15.717Z,21.50
2019-03-22T09:52:46.840Z,20.80
2019-03-22T09:55:15.468Z,20.30
2019-03-22T09:57:44.019Z,20.10
2019-03-22T10:00:24.472Z,20.80
2019-03-22T10:02:53.050Z,22.50
2019-03-22T10:05:21.613Z,22.50
2019-03-22T10:07:50.237Z,22.30
2019-03-22T10:10:18.872Z,23.20
2019-03-22T10:12:47.473Z,23.90
2019-03-22T10:15:16.110Z,24.50
2019-03-22T10:17:44.686Z,23.90
2019-03-22T10:20:13.491Z,24.10
2019-03-22T10:22:42.219Z,23.60
2019-03-22T10:25:10.982Z,23.30
2019-03-22T10:27:39.581Z,23.30
2019-03-22T10:30:13.497Z,23.10
2019-03-22T10:32:42.058Z,23.70
2019-03-22T10:35:10.956Z,23.20
2019-03-22T10:37:39.694Z,23.60
2019-03-22T10:40:08.602Z,24.30
2019-03-22T10:42:37.256Z,25.00
2019-03-22T10:45:07.837Z,24.70
2019-03-22T10:47:36.502Z,24.40
2019-03-22T10:50:09.077Z,24.20
2019-03-22T10:52:37.856Z,24.80
2019-03-22T10:55:23.630Z,25.60
2019-03-22T10:57:40.322Z,25.20
2019-03-22T11:00:12.015Z,25.40
2019-03-22T11:02:40.648Z,25.90
2019-03-22T11:05:09.277Z,25.70
2019-03-22T11:07:38.116Z,25.30
2019-03-22T11:10:11.187Z,25.10
2019-03-22T11:12:39.974Z,24.40
2019-03-22T11:15:11.022Z,23.70
2019-03-22T11:17:39.754Z,24.30
2019-03-22T11:20:11.458Z,24.50
2019-03-22T11:22:40.242Z,24.10
2019-03-22T11:25:09.341Z,24.20
2019-03-22T11:27:38.045Z,23.50
2019-03-22T11:30:12.902Z,22.90
2019-03-22T11:32:41.457Z,23.00
2019-03-22T11:35:10.562Z,23.10
2019-03-22T11:37:39.246Z,24.20
2019-03-22T11:40:10.823Z,25.20
2019-03-22T11:42:39.521Z,25.80
2019-03-22T11:45:11.321Z,25.10
2019-03-22T11:47:39.886Z,25.90
2019-03-22T11:50:10.085Z,26.70
2019-03-22T11:52:38.946Z,27.10
2019-03-22T11:55:10.251Z,27.20
2019-03-22T11:57:39.050Z,26.40
2019-03-22T12:00:23.000Z,27.00
2019-03-22T12:02:51.689Z,27.60
2019-03-22T12:05:22.498Z,28.20
2019-03-22T12:07:51.227Z,28.00
2019-03-22T12:10:23.382Z,26.90
2019-03-22T12:12:52.026Z,27.10
2019-03-22T12:15:22.722Z,27.30
2019-03-22T12:17:51.479Z,27.80
2019-03-22T12:20:22.195Z,27.30
2019-03-22T12:22:51.112Z,26.80
2019-03-22T12:25:24.481Z,26.10
2019-03-22T12:27:53.111Z,26.30
2019-03-22T12:30:22.027Z,26.50
2019-03-22T12:32:50.655Z,27.00
2019-03-22T12:35:19.450Z,26.20
2019-03-22T12:37:48.183Z,25.90
2019-03-22T12:40:20.685Z,26.20
2019-03-22T12:42:49.706Z,25.80
2019-03-22T12:45:26.934Z,26.00
2019-03-22T12:47:55.834Z,26.40
2019-03-22T12:50:24.737Z,26.50
2019-03-22T12:52:53.579Z,26.20
2019-03-22T12:55:22.274Z,26.10
2019-03-22T12:57:50.910Z,25.50
2019-03-22T13:00:27.015Z,25.40
2019-03-22T13:02:56.123Z,26.00
2019-03-22T13:05:24.925Z,26.60
2019-03-22T13:07:53.595Z,26.50
2019-03-22T13:10:29.325Z,26.00
2019-03-22T13:12:58.191Z,26.50
2019-03-22T13:15:26.749Z,27.20
2019-03-22T13:17:55.382Z,28.00
2019-03-22T13:20:24.199Z,27.90
2019-03-22T13:22:52.759Z,28.80
2019-03-22T13:25:21.427Z,28.80
2019-03-22T13:27:50.081Z,27.70
2019-03-22T13:30:30.701Z,26.80
2019-03-22T13:32:59.753Z,27.40
2019-03-22T13:35:28.443Z,27.30
2019-03-22T13:37:57.081Z,27.50
2019-03-22T13:40:26.066Z,28.10
2019-03-22T13:42:54.698Z,28.30
2019-03-22T13:45:23.337Z,27.90
2019-03-22T13:47:52.166Z,27.40
2019-03-22T13:50:20.865Z,27.10
2019-03-22T13:52:49.565Z,26.80
2019-03-22T13:55:18.235Z,26.70
2019-03-22T13:57:46.794Z,26.70
2019-03-22T14:00:16.893Z,26.20
2019-03-22T14:02:45.557Z,25.70
2019-03-22T14:05:14.191Z,26.00
2019-03-22T14:07:42.817Z,26.10
2019-03-22T14:10:34.991Z,26.30
2019-03-22T14:13:05.294Z,27.10
2019-03-22T14:15:34.190Z,28.00
2019-03-22T14:18:03.293Z,28.50
2019-03-22T14:20:31.990Z,28.10
2019-03-22T14:23:00.626Z,28.10
2019-03-22T14:25:29.499Z,29.30
2019-03-22T14:27:58.158Z,29.90
2019-03-22T14:30:26.794Z,29.90
2019-03-22T14:32:55.872Z,30.60
2019-03-22T14:35:24.502Z,29.50
2019-03-22T14:37:53.134Z,28.50
2019-03-22T14:40:22.093Z,27.60
2019-03-22T14:42:50.658Z,27.50
2019-03-22T14:45:19.358Z,27.40
2019-03-22T14:47:48.187Z,27.60
2019-03-22T14:50:16.827Z,26.90
2019-03-22T14:52:45.526Z,26.20
2019-03-22T14:55:14.368Z,25.60
2019-03-22T14:57:49.172Z,25.80
2019-03-22T15:00:14.101Z,25.80
2019-03-22T15:02:42.947Z,25.90
2019-03-22T15:05:12.054Z,26.30
2019-03-22T15:07:40.625Z,26.20
2019-03-22T15:10:11.220Z,26.50
2019-03-22T15:12:39.789Z,26.20
2019-03-22T15:15:28.254Z,25.90
2019-03-22T15:17:58.462Z,25.40
2019-03-22T15:20:44.966Z,24.50
2019-03-22T15:23:31.502Z,24.30
2019-03-22T15:26:18.245Z,25.00
2019-03-22T15:29:06.434Z,25.50
2019-03-22T15:31:42.815Z,25.40
2019-03-22T15:34:31.126Z,24.60
2019-03-22T15:37:04.373Z,24.40
2019-03-22T15:39:50.607Z,24.80
2019-03-22T15:42:19.365Z,24.60
2019-03-22T15:44:47.990Z,25.00
2019-03-22T15:47:16.725Z,24.80
2019-03-22T15:49:45.544Z,24.90
2019-03-22T15:52:14.101Z,25.10
2019-03-22T15:54:42.731Z,25.30
2019-03-22T15:57:11.561Z,25.40
2019-03-22T15:59:40.193Z,25.10
2019-03-22T16:02:08.900Z,24.40
2019-03-22T16:04:37.705Z,23.70
2019-03-22T16:07:06.910Z,23.50
2019-03-22T16:09:35.473Z,23.10
2019-03-22T16:12:04.228Z,23.60
2019-03-22T16:14:32.798Z,23.60
2019-03-22T16:17:01.431Z,23.50
2019-03-22T16:19:30.105Z,23.50
2019-03-22T16:21:58.670Z,23.30
2019-03-22T16:24:27.230Z,23.00
2019-03-22T16:26:55.897Z,22.20
2019-03-22T16:29:24.461Z,21.50
2019-03-22T16:31:53.021Z,21.10
2019-03-22T16:34:21.624Z,20.60
2019-03-22T16:36:50.261Z,20.10
2019-03-22T16:39:18.830Z,19.70
2019-03-22T16:41:47.589Z,19.30
2019-03-22T16:44:16.149Z,18.90
2019-03-22T16:46:44.707Z,18.60
2019-03-22T16:49:13.365Z,18.20
2019-03-22T16:51:41.926Z,18.00
2019-03-22T16:54:10.481Z,17.60
2019-03-22T16:56:39.436Z,17.50
2019-03-22T16:59:08.036Z,17.20
2019-03-22T17:01:36.686Z,17.00
2019-03-22T17:04:05.413Z,16.80
2019-03-22T17:06:34.059Z,16.60
2019-03-22T17:09:02.915Z,16.30
2019-03-22T17:11:31.703Z,16.10
2019-03-22T17:14:00.535Z,15.80
2019-03-22T17:16:29.085Z,15.60
2019-03-22T17:18:57.758Z,15.30
2019-03-22T17:21:26.323Z,15.10
2019-03-22T17:23:54.885Z,14.90
2019-03-22T17:26:23.657Z,14.70
2019-03-22T17:28:52.204Z,14.50
2019-03-22T17:31:20.830Z,14.30
2019-03-22T17:33:49.427Z,14.10
2019-03-22T17:36:17.983Z,14.10
2019-03-22T17:38:46.609Z,13.90
2019-03-22T17:41:15.598Z,13.80
2019-03-22T17:43:44.162Z,13.60
2019-03-22T17:46:12.717Z,13.50
2019-03-22T17:48:41.382Z,13.30
2019-03-22T17:51:09.943Z,13.20
2019-03-22T17:53:38.503Z,13.00
2019-03-22T17:56:07.289Z,12.90
2019-03-22T17:58:35.841Z,12.80
2019-03-22T18:01:04.608Z,12.80
2019-03-22T18:03:33.273Z,12.70
2019-03-22T18:06:01.910Z,12.60
2019-03-22T18:08:30.470Z,12.50
2019-03-22T18:10:59.072Z,12.40
2019-03-22T18:13:27.634Z,12.30
2019-03-22T18:15:56.202Z,12.30
2019-03-22T18:18:24.798Z,12.20
2019-03-22T18:20:53.361Z,12.20
2019-03-22T18:23:21.989Z,12.10
2019-03-22T18:25:50.649Z,12.10
2019-03-22T18:28:19.282Z,12.00
2019-03-22T18:30:47.841Z,11.90
2019-03-22T18:33:16.545Z,11.90
2019-03-22T18:35:45.109Z,11.80
2019-03-22T18:38:13.671Z,11.80
2019-03-22T18:40:42.265Z,11.70
2019-03-22T18:43:10.836Z,11.60
2019-03-22T18:45:39.385Z,11.70
2019-03-22T18:48:08.061Z,11.70
2019-03-22T18:50:36.627Z,11.70
2019-03-22T18:53:05.183Z,11.80
2019-03-22T18:55:33.786Z,11.70
2019-03-22T18:58:02.334Z,11.50
2019-03-22T19:00:30.965Z,11.50
2019-03-22T19:02:59.583Z,11.30
2019-03-22T19:05:28.136Z,11.20
2019-03-22T19:07:56.694Z,11.10
2019-03-22T19:10:25.301Z,11.00
2019-03-22T19:12:53.884Z,11.00
2019-03-22T19:15:22.496Z,10.80
2019-03-22T19:17:51.149Z,10.60
2019-03-22T19:20:19.786Z,10.50
2019-03-22T19:22:48.406Z,10.40
2019-03-22T19:25:17.178Z,10.30
2019-03-22T19:27:45.808Z,10.20
2019-03-22T19:30:15.905Z,10.20
2019-03-22T19:32:44.590Z,10.10
2019-03-22T19:35:14.006Z,10.00
2019-03-22T19:37:42.625Z,9.90
2019-03-22T19:40:14.410Z,9.80
2019-03-22T19:42:43.225Z,9.70
2019-03-22T19:45:13.628Z,9.70
2019-03-22T19:47:42.296Z,9.70
2019-03-22T19:50:13.419Z,9.60
2019-03-22T19:52:42.954Z,9.50
2019-03-22T19:55:11.787Z,9.50
2019-03-22T19:57:40.384Z,9.40
2019-03-22T20:00:14.810Z,9.30
2019-03-22T20:02:43.490Z,9.30
2019-03-22T20:05:13.657Z,9.20
2019-03-22T20:07:42.245Z,9.10
2019-03-22T20:10:12.182Z,9.10
2019-03-22T20:12:40.874Z,9.10
2019-03-22T20:15:10.872Z,9.00
2019-03-22T20:17:40.041Z,9.10
2019-03-22T20:20:09.533Z,9.10
2019-03-22T20:22:38.156Z,9.00
2019-03-22T20:25:10.306Z,9.00
2019-03-22T20:27:39.045Z,8.90
2019-03-22T20:30:13.608Z,8.90
2019-03-22T20:32:42.305Z,8.90
2019-03-22T20:35:16.318Z,8.90
2019-03-22T20:37:41.234Z,8.80
2019-03-22T20:40:15.649Z,8.70
2019-03-22T20:42:44.213Z,8.60
2019-03-22T20:45:23.286Z,8.50
2019-03-22T20:47:43.382Z,8.40
2019-03-22T20:50:12.292Z,8.40
2019-03-22T20:52:40.916Z,8.30
2019-03-22T20:55:10.138Z,8.30
2019-03-22T20:57:38.922Z,8.30
2019-03-22T21:00:10.261Z,8.20
2019-03-22T21:02:38.861Z,8.20
2019-03-22T21:05:07.558Z,8.30
2019-03-22T21:07:36.211Z,8.40
2019-03-22T21:10:07.031Z,8.40
2019-03-22T21:12:35.673Z,8.30
2019-03-22T21:15:06.570Z,8.20
2019-03-22T21:17:35.191Z,8.10
2019-03-22T21:20:08.466Z,8.00
2019-03-22T21:22:37.095Z,7.90
2019-03-22T21:25:07.087Z,7.80
2019-03-22T21:27:35.710Z,7.70
2019-03-22T21:30:10.219Z,7.70
2019-03-22T21:32:45.122Z,7.70
2019-03-22T21:35:09.408Z,7.60
2019-03-22T21:37:38.112Z,7.50
2019-03-22T21:40:08.139Z,7.50
2019-03-22T21:42:57.551Z,7.40
2019-03-22T21:45:26.147Z,7.30
2019-03-22T21:47:54.705Z,7.30
2019-03-22T21:50:23.266Z,7.30
2019-03-22T21:52:51.958Z,7.20
2019-03-22T21:55:20.522Z,7.20
2019-03-22T21:57:49.073Z,7.20
2019-03-22T22:00:18.049Z,7.20
2019-03-22T22:02:46.614Z,7.10
2019-03-22T22:05:15.320Z,7.10
2019-03-22T22:07:43.901Z,7.00
2019-03-22T22:10:12.568Z,7.00
2019-03-22T22:12:41.189Z,6.90
2019-03-22T22:15:11.700Z,6.90
2019-03-22T22:17:41.589Z,6.80
2019-03-22T22:20:10.720Z,6.80
2019-03-22T22:22:39.413Z,6.80
2019-03-22T22:25:08.513Z,6.70
2019-03-22T22:27:37.075Z,6.60
2019-03-22T22:30:08.074Z,6.60
2019-03-22T22:32:36.634Z,6.60
2019-03-22T22:35:09.316Z,6.60
2019-03-22T22:37:38.049Z,6.60
2019-03-22T22:40:12.274Z,6.70
2019-03-22T22:42:40.829Z,6.60
2019-03-22T22:45:11.521Z,6.40
2019-03-22T22:47:40.154Z,6.40
2019-03-22T22:50:10.938Z,6.40
2019-03-22T22:52:39.529Z,6.30
2019-03-22T22:55:08.332Z,6.20
2019-03-22T22:57:36.890Z,6.30
2019-03-22T23:00:08.560Z,6.20
2019-03-22T23:02:37.117Z,6.10
2019-03-22T23:05:06.517Z,6.10
2019-03-22T23:07:35.122Z,6.10
2019-03-22T23:10:05.891Z,6.10
2019-03-22T23:12:34.801Z,6.10
2019-03-22T23:15:04.997Z,6.00
2019-03-22T23:17:35.803Z,5.90
2019-03-22T23:20:05.121Z,5.90
2019-03-22T23:22:34.401Z,5.90
2019-03-22T23:25:03.336Z,5.80
2019-03-22T23:27:31.933Z,5.80
2019-03-22T23:30:00.526Z,5.70
2019-03-22T23:32:29.166Z,5.70
2019-03-22T23:34:59.217Z,5.70
2019-03-22T23:37:28.177Z,5.60
2019-03-22T23:39:56.737Z,5.60
2019-03-22T23:42:25.297Z,5.80
2019-03-22T23:44:54.486Z,5.70
2019-03-22T23:47:23.100Z,5.60
2019-03-22T23:49:51.661Z,5.50
2019-03-22T23:52:20.458Z,5.50
2019-03-22T23:54:49.019Z,5.40
2019-03-22T23:57:17.578Z,5.40
2019-03-22T23:59:46.247Z,5.40
